Time;durP1;ratioP1;P1;durP2;ratioP2;P2;SDS_P1;SDS_P2;PMS_P1;PMS_P2;Temp;Humidity;BMP_temperature;BMP_pressure;BME280_temperature;BME280_humidity;BME280_pressure;Samples;Min_cycle;Max_cycle;Signal;HPM_P1;HPM_P2
2023/05/09 00:00:33;;;;;;;97.30;45.67;;;15.20;99.90;;;;;;5066163;28;20108;-66
2023/05/09 00:02:58;;;;;;;107.32;45.45;;;15.10;99.90;;;;;;5066158;28;20036;-64
2023/05/09 00:05:24;;;;;;;105.25;46.30;;;15.00;99.90;;;;;;5052338;28;20033;-65
2023/05/09 00:07:50;;;;;;;99.53;47.08;;;15.00;99.90;;;;;;5066349;28;20105;-63
2023/05/09 00:10:16;;;;;;;96.03;46.75;;;14.90;99.90;;;;;;5049065;28;20089;-65
2023/05/09 00:12:42;;;;;;;112.10;48.80;;;14.90;99.90;;;;;;5049658;28;20588;-64
2023/05/09 00:15:08;;;;;;;113.05;50.03;;;14.90;99.90;;;;;;5065445;28;20040;-62
2023/05/09 00:17:35;;;;;;;113.15;49.45;;;14.90;99.90;;;;;;5066005;28;20036;-63
2023/05/09 00:20:04;;;;;;;117.30;50.03;;;14.80;99.90;;;;;;5049664;28;20052;-62
2023/05/09 00:22:29;;;;;;;114.60;50.22;;;14.80;99.90;;;;;;5076475;28;20263;-62
2023/05/09 00:24:55;;;;;;;110.72;49.72;;;14.80;99.90;;;;;;5072857;28;20078;-61
2023/05/09 00:27:21;;;;;;;120.35;52.15;;;14.80;99.90;;;;;;5066071;28;20052;-63
2023/05/09 00:29:46;;;;;;;114.65;50.97;;;14.80;99.90;;;;;;5067738;28;20138;-65
2023/05/09 00:32:12;;;;;;;123.20;51.47;;;14.80;99.90;;;;;;5066107;28;20040;-62
2023/05/09 00:34:38;;;;;;;139.20;53.60;;;14.80;99.90;;;;;;5048352;28;20572;-62
2023/05/09 00:37:03;;;;;;;144.45;54.00;;;14.80;99.90;;;;;;5049246;28;20036;-62
2023/05/09 00:39:29;;;;;;;114.85;49.58;;;14.80;99.90;;;;;;5065554;28;20053;-61
2023/05/09 00:41:56;;;;;;;149.43;52.05;;;14.80;99.90;;;;;;5075579;28;20044;-62
2023/05/09 00:44:22;;;;;;;138.98;50.65;;;14.80;99.90;;;;;;5047996;28;20051;-62
2023/05/09 00:46:47;;;;;;;139.70;51.08;;;14.70;99.90;;;;;;5049403;28;20040;-62
2023/05/09 00:49:13;;;;;;;128.85;50.35;;;14.80;99.90;;;;;;5065125;28;20048;-62
2023/05/09 00:51:40;;;;;;;142.73;49.55;;;14.70;99.90;;;;;;5049116;28;20041;-62
2023/05/09 00:54:07;;;;;;;131.82;48.45;;;14.70;99.90;;;;;;5066074;28;20398;-61
2023/05/09 00:56:32;;;;;;;125.80;49.10;;;14.70;99.90;;;;;;5049011;28;20098;-64
2023/05/09 00:58:59;;;;;;;151.13;53.63;;;14.60;99.90;;;;;;5048649;28;20040;-63
2023/05/09 01:01:25;;;;;;;155.65;54.30;;;14.50;99.90;;;;;;5064916;28;20036;-61
2023/05/09 01:03:51;;;;;;;151.90;53.10;;;14.40;99.90;;;;;;5047380;28;20054;-63
2023/05/09 01:06:40;;;;;;;148.48;53.88;;;14.40;99.90;;;;;;5082379;28;20075;-63
2023/05/09 01:09:18;;;;;;;138.70;52.92;;;14.30;99.90;;;;;;5081442;28;20048;-64
2023/05/09 01:12:14;;;;;;;150.45;53.53;;;14.30;99.90;;;;;;5065627;28;20044;-61
2023/05/09 01:15:05;;;;;;;158.68;53.05;;;14.30;99.90;;;;;;5063076;28;20555;-62
2023/05/09 01:17:43;;;;;;;173.20;56.67;;;14.20;99.90;;;;;;5049315;28;20131;-62
2023/05/09 01:20:22;;;;;;;168.00;57.17;;;14.20;99.90;;;;;;5078362;28;20056;-62
2023/05/09 01:23:00;;;;;;;144.45;54.55;;;14.10;99.90;;;;;;5056502;28;20555;-61
2023/05/09 01:25:53;;;;;;;200.73;60.65;;;14.10;99.90;;;;;;5048911;28;20118;-60
2023/05/09 01:28:43;;;;;;;180.05;57.88;;;14.10;99.90;;;;;;5051082;28;20067;-62
2023/05/09 01:31:09;;;;;;;177.73;59.10;;;14.10;99.90;;;;;;5084998;28;20575;-62
2023/05/09 01:33:39;;;;;;;163.38;56.20;;;14.10;99.90;;;;;;5047527;28;20075;-61
2023/05/09 01:36:14;;;;;;;170.63;57.70;;;14.10;99.90;;;;;;5059792;28;20040;-62
2023/05/09 01:38:41;;;;;;;168.68;58.17;;;14.20;99.90;;;;;;5085327;28;20086;-61
2023/05/09 01:41:09;;;;;;;180.85;57.45;;;14.10;99.90;;;;;;5073163;28;20044;-61
2023/05/09 01:43:37;;;;;;;164.40;57.17;;;14.10;99.90;;;;;;5049267;28;20043;-61
2023/05/09 01:46:04;;;;;;;190.98;60.53;;;14.10;99.90;;;;;;5047766;28;20040;-62
2023/05/09 01:48:32;;;;;;;189.38;59.08;;;14.10;99.90;;;;;;5064581;28;20142;-61
2023/05/09 01:50:59;;;;;;;178.07;58.58;;;14.10;99.90;;;;;;5048378;28;20521;-61
2023/05/09 01:53:28;;;;;;;188.65;60.10;;;14.10;99.90;;;;;;5047991;28;20047;-63
2023/05/09 01:55:55;;;;;;;189.10;61.85;;;14.10;99.90;;;;;;5064078;28;20055;-62
2023/05/09 01:58:22;;;;;;;202.75;61.92;;;14.10;99.90;;;;;;5059270;28;20035;-62
2023/05/09 02:00:49;;;;;;;151.85;56.40;;;14.10;99.90;;;;;;5084178;28;20036;-61
2023/05/09 02:03:15;;;;;;;177.57;58.78;;;14.10;99.90;;;;;;5067032;28;20044;-61
2023/05/09 02:05:43;;;;;;;210.98;61.33;;;14.10;99.90;;;;;;5066694;28;20055;-61
2023/05/09 02:08:09;;;;;;;171.73;56.75;;;14.10;99.90;;;;;;5073275;28;20519;-63
2023/05/09 02:10:36;;;;;;;177.13;59.45;;;14.10;99.90;;;;;;5063642;28;20056;-61
2023/05/09 02:13:03;;;;;;;176.25;58.42;;;14.20;99.90;;;;;;5047260;28;20539;-63
2023/05/09 02:15:29;;;;;;;217.90;62.22;;;14.20;99.90;;;;;;5067493;28;20031;-61
2023/05/09 02:17:55;;;;;;;205.50;61.60;;;14.20;99.90;;;;;;5067939;28;20112;-61
2023/05/09 02:20:21;;;;;;;195.57;60.58;;;14.20;99.90;;;;;;5051300;28;20044;-61
2023/05/09 02:22:47;;;;;;;187.98;59.58;;;14.20;99.90;;;;;;5067950;28;20511;-62
2023/05/09 02:25:17;;;;;;;213.05;61.10;;;14.10;99.90;;;;;;5066571;28;20055;-63
2023/05/09 02:27:44;;;;;;;208.55;61.08;;;14.10;99.90;;;;;;5067115;28;20070;-62
2023/05/09 02:30:15;;;;;;;241.55;65.90;;;14.10;99.90;;;;;;5047930;28;20075;-63
2023/05/09 02:32:42;;;;;;;214.57;62.65;;;14.10;99.90;;;;;;5048150;28;20032;-63
2023/05/09 02:35:10;;;;;;;190.00;62.30;;;14.00;99.90;;;;;;5076567;28;20426;-63
2023/05/09 02:37:37;;;;;;;193.73;60.55;;;14.00;99.90;;;;;;5067759;28;20043;-62
2023/05/09 02:40:04;;;;;;;205.35;60.72;;;14.00;99.90;;;;;;5059894;28;20040;-61
2023/05/09 02:42:30;;;;;;;157.77;57.40;;;14.00;99.90;;;;;;5067394;28;20073;-63
2023/05/09 02:44:56;;;;;;;175.77;57.35;;;14.00;99.90;;;;;;5049819;28;20044;-62
2023/05/09 02:47:21;;;;;;;177.85;58.03;;;14.00;99.90;;;;;;5047580;28;20127;-62
2023/05/09 02:49:47;;;;;;;174.25;57.08;;;14.10;99.90;;;;;;5063890;28;20178;-62
2023/05/09 02:52:13;;;;;;;171.90;57.08;;;14.10;99.90;;;;;;5063903;28;20543;-62
2023/05/09 02:54:39;;;;;;;166.00;54.80;;;14.10;99.90;;;;;;5063608;28;20045;-61
2023/05/09 02:57:05;;;;;;;168.85;56.53;;;14.00;99.90;;;;;;5064537;28;20173;-62
2023/05/09 02:59:31;;;;;;;164.95;56.60;;;14.00;99.90;;;;;;5063707;28;20036;-62
2023/05/09 03:01:57;;;;;;;150.32;56.00;;;14.00;99.90;;;;;;5047088;28;20270;-63
2023/05/09 03:04:24;;;;;;;166.65;55.67;;;14.00;99.90;;;;;;5069638;28;20825;-63
2023/05/09 03:06:50;;;;;;;145.85;54.15;;;14.00;99.90;;;;;;5084113;28;20065;-63
2023/05/09 03:09:16;;;;;;;155.82;56.00;;;14.00;99.90;;;;;;5083141;28;20121;-64
2023/05/09 03:11:42;;;;;;;140.18;54.80;;;14.00;99.90;;;;;;5083715;28;20133;-62
2023/05/09 03:14:08;;;;;;;123.72;50.17;;;14.00;99.90;;;;;;5054581;28;20067;-63
2023/05/09 03:16:34;;;;;;;118.53;50.05;;;14.10;99.90;;;;;;5046933;28;20810;-62
2023/05/09 03:19:00;;;;;;;126.28;52.45;;;14.10;99.90;;;;;;5046198;28;20048;-63
2023/05/09 03:21:25;;;;;;;127.70;49.67;;;14.10;99.90;;;;;;5046620;28;20494;-62
2023/05/09 03:23:51;;;;;;;135.35;51.72;;;14.10;99.90;;;;;;5046712;28;20544;-65
2023/05/09 03:26:17;;;;;;;127.25;50.53;;;14.10;99.90;;;;;;5050059;28;20051;-63
2023/05/09 03:28:43;;;;;;;131.88;52.38;;;14.10;99.90;;;;;;5051225;28;20101;-63
2023/05/09 03:31:08;;;;;;;134.27;52.97;;;14.00;99.90;;;;;;5067799;28;20119;-62
2023/05/09 03:33:34;;;;;;;143.40;53.42;;;14.10;99.90;;;;;;5066252;28;20048;-63
2023/05/09 03:36:00;;;;;;;147.00;55.78;;;14.00;99.90;;;;;;5067436;28;20048;-62
2023/05/09 03:38:25;;;;;;;139.75;55.28;;;14.00;99.90;;;;;;5067490;28;20044;-63
2023/05/09 03:40:52;;;;;;;136.45;55.30;;;14.00;99.90;;;;;;5066656;28;20202;-64
2023/05/09 03:43:18;;;;;;;154.35;56.05;;;14.10;99.90;;;;;;5066647;28;20036;-65
2023/05/09 03:45:44;;;;;;;148.43;54.45;;;14.00;99.90;;;;;;5066491;28;20044;-65
2023/05/09 03:48:10;;;;;;;128.27;50.97;;;14.10;99.90;;;;;;5066958;28;20090;-63
2023/05/09 03:50:36;;;;;;;120.80;50.55;;;14.10;99.90;;;;;;5049530;28;20064;-63
2023/05/09 03:53:02;;;;;;;138.02;50.47;;;14.10;99.90;;;;;;5067143;28;20036;-63
2023/05/09 03:55:29;;;;;;;102.82;45.13;;;14.10;99.90;;;;;;5066454;28;20532;-63
2023/05/09 03:57:55;;;;;;;78.93;39.83;;;14.10;99.90;;;;;;5067525;28;20439;-62
2023/05/09 04:00:21;;;;;;;72.13;39.17;;;14.10;99.90;;;;;;5082660;28;20558;-64
2023/05/09 04:02:48;;;;;;;67.05;35.88;;;14.10;99.90;;;;;;5066927;28;20056;-63
2023/05/09 04:05:15;;;;;;;57.22;34.78;;;14.10;99.90;;;;;;5059941;28;20136;-65
2023/05/09 04:07:41;;;;;;;58.90;34.63;;;14.00;99.90;;;;;;5067217;28;20518;-64
2023/05/09 04:10:08;;;;;;;52.97;32.25;;;14.00;99.90;;;;;;5081874;28;20645;-63
2023/05/09 04:12:33;;;;;;;53.63;31.67;;;14.00;99.90;;;;;;5067185;28;20129;-63
2023/05/09 04:14:59;;;;;;;49.90;31.23;;;14.00;99.90;;;;;;5081883;28;20071;-63
2023/05/09 04:17:25;;;;;;;50.75;30.88;;;14.00;99.90;;;;;;5087260;28;20036;-63
2023/05/09 04:19:51;;;;;;;45.28;29.33;;;14.00;99.90;;;;;;5057075;28;20044;-64
2023/05/09 04:22:17;;;;;;;44.47;28.95;;;14.00;99.90;;;;;;5052410;28;20047;-63
2023/05/09 04:24:43;;;;;;;44.22;28.40;;;14.00;99.90;;;;;;5057068;28;20048;-63
2023/05/09 04:27:09;;;;;;;41.10;28.05;;;14.00;99.90;;;;;;5068613;28;20063;-62
2023/05/09 04:29:35;;;;;;;50.70;30.20;;;14.00;99.90;;;;;;5051813;28;20045;-62
2023/05/09 04:32:01;;;;;;;45.63;29.50;;;14.00;99.90;;;;;;5049753;28;20055;-62
2023/05/09 04:34:28;;;;;;;53.30;30.00;;;14.00;99.90;;;;;;5069078;28;20048;-63
2023/05/09 04:36:57;;;;;;;45.05;29.25;;;14.00;99.90;;;;;;5065848;28;20032;-62
2023/05/09 04:39:22;;;;;;;43.92;28.65;;;14.00;99.90;;;;;;5063489;28;20567;-64
2023/05/09 04:41:48;;;;;;;44.53;28.48;;;14.10;99.90;;;;;;5066974;28;20051;-62
2023/05/09 04:44:15;;;;;;;49.83;29.75;;;14.00;99.90;;;;;;5058351;28;20336;-63
2023/05/09 04:46:41;;;;;;;44.78;28.77;;;14.00;99.90;;;;;;5066748;28;20082;-61
2023/05/09 04:49:06;;;;;;;45.58;27.98;;;14.10;99.90;;;;;;5066671;28;20076;-62
2023/05/09 04:51:32;;;;;;;44.70;28.50;;;14.00;99.90;;;;;;5049664;28;20498;-62
2023/05/09 04:53:58;;;;;;;45.78;27.48;;;14.00;99.90;;;;;;5066661;28;20041;-60
2023/05/09 04:56:24;;;;;;;42.90;28.38;;;14.10;99.90;;;;;;5049433;28;20078;-63
2023/05/09 04:58:50;;;;;;;52.80;28.85;;;14.00;99.90;;;;;;5081865;28;20484;-63
2023/05/09 05:01:16;;;;;;;47.38;29.48;;;14.00;99.90;;;;;;5065863;28;20040;-62
2023/05/09 05:03:42;;;;;;;44.67;28.48;;;14.00;99.90;;;;;;5082749;28;20086;-64
2023/05/09 05:06:07;;;;;;;47.33;29.33;;;14.00;99.90;;;;;;5049202;28;20110;-60
2023/05/09 05:08:33;;;;;;;47.28;29.92;;;14.00;99.90;;;;;;5065528;28;20045;-62
2023/05/09 05:10:59;;;;;;;44.25;29.52;;;14.00;99.90;;;;;;5065121;28;20060;-62
2023/05/09 05:13:25;;;;;;;45.63;28.58;;;14.00;99.90;;;;;;5048610;28;20047;-64
2023/05/09 05:15:51;;;;;;;50.95;31.30;;;14.00;99.90;;;;;;5065375;28;20132;-62
2023/05/09 05:18:17;;;;;;;52.70;31.42;;;14.00;99.90;;;;;;5082559;28;20036;-63
2023/05/09 05:20:43;;;;;;;51.15;30.45;;;14.10;99.90;;;;;;5066692;28;20036;-62
2023/05/09 05:23:09;;;;;;;46.00;30.35;;;14.10;99.90;;;;;;5065053;28;20045;-63
2023/05/09 05:25:35;;;;;;;45.88;29.85;;;14.10;99.90;;;;;;5048025;28;20040;-62
2023/05/09 05:28:01;;;;;;;46.75;29.38;;;14.10;99.90;;;;;;5054580;28;20570;-62
2023/05/09 05:30:26;;;;;;;48.63;29.70;;;14.10;99.90;;;;;;5048334;28;20056;-61
2023/05/09 05:32:52;;;;;;;47.03;29.30;;;14.10;99.90;;;;;;5066890;28;20040;-63
2023/05/09 05:35:21;;;;;;;50.08;31.23;;;14.10;99.90;;;;;;5065452;28;20039;-61
2023/05/09 05:37:46;;;;;;;51.10;31.95;;;14.20;99.90;;;;;;5064692;28;20123;-61
2023/05/09 05:40:12;;;;;;;44.40;30.23;;;14.20;99.90;;;;;;5064179;28;20195;-64
2023/05/09 05:42:38;;;;;;;48.50;30.52;;;14.20;99.90;;;;;;5060741;28;20048;-63
2023/05/09 05:45:04;;;;;;;48.85;31.23;;;14.20;99.90;;;;;;5074391;28;20117;-64
2023/05/09 05:47:34;;;;;;;50.00;31.13;;;14.20;99.90;;;;;;5073211;28;21715;-65
2023/05/09 05:50:00;;;;;;;45.13;30.38;;;14.20;99.90;;;;;;5073621;28;20499;-62
2023/05/09 05:52:26;;;;;;;44.65;30.15;;;14.20;99.90;;;;;;5074087;28;21123;-64
2023/05/09 05:54:55;;;;;;;44.92;30.35;;;14.20;99.90;;;;;;5073200;28;20337;-64
2023/05/09 05:57:21;;;;;;;48.35;31.98;;;14.20;99.90;;;;;;5055030;28;20563;-64
2023/05/09 05:59:48;;;;;;;52.22;32.03;;;14.30;99.90;;;;;;5056314;28;20052;-62
2023/05/09 06:02:14;;;;;;;44.83;30.40;;;14.20;99.90;;;;;;5073299;28;20044;-64
2023/05/09 06:04:41;;;;;;;50.45;32.35;;;14.30;99.90;;;;;;5072779;28;20044;-63
2023/05/09 06:07:08;;;;;;;54.33;32.05;;;14.30;99.90;;;;;;5055031;28;20044;-63
2023/05/09 06:09:34;;;;;;;44.25;30.33;;;14.30;99.90;;;;;;5055811;28;20060;-64
2023/05/09 06:11:59;;;;;;;52.58;32.47;;;14.30;99.90;;;;;;5073476;28;20058;-62
2023/05/09 06:14:25;;;;;;;50.95;31.35;;;14.30;99.90;;;;;;5053716;28;20142;-63
2023/05/09 06:16:51;;;;;;;49.72;32.67;;;14.30;99.90;;;;;;5070842;28;20467;-63
2023/05/09 06:19:17;;;;;;;52.15;34.03;;;14.30;99.90;;;;;;5056540;28;20605;-62
2023/05/09 06:21:43;;;;;;;51.67;33.40;;;14.40;99.90;;;;;;5071626;28;20047;-63
2023/05/09 06:24:09;;;;;;;54.47;34.40;;;14.40;99.90;;;;;;5049638;28;20051;-64
2023/05/09 06:26:35;;;;;;;48.85;33.60;;;14.40;99.90;;;;;;5071484;28;20561;-64
2023/05/09 06:29:02;;;;;;;52.50;33.35;;;14.50;99.90;;;;;;5071932;28;20067;-65
2023/05/09 06:31:27;;;;;;;54.28;33.92;;;14.50;99.90;;;;;;5072275;28;20082;-65
2023/05/09 06:33:53;;;;;;;49.80;33.85;;;14.60;99.90;;;;;;5054906;28;20908;-65
2023/05/09 06:36:19;;;;;;;54.85;35.35;;;14.60;99.90;;;;;;5072667;28;20040;-64
2023/05/09 06:38:45;;;;;;;61.47;37.08;;;14.70;99.90;;;;;;5054364;28;20446;-64
2023/05/09 06:41:10;;;;;;;60.00;36.85;;;14.70;99.90;;;;;;5061077;28;20043;-66
2023/05/09 06:43:36;;;;;;;50.92;33.55;;;14.80;99.90;;;;;;5059541;28;20222;-65
2023/05/09 06:46:02;;;;;;;50.83;34.08;;;14.90;99.90;;;;;;5050496;28;20044;-68
2023/05/09 06:48:28;;;;;;;48.75;33.58;;;15.00;99.90;;;;;;5054485;28;20036;-67
2023/05/09 06:50:54;;;;;;;51.72;34.85;;;15.00;99.90;;;;;;5068787;28;20716;-64
2023/05/09 06:53:20;;;;;;;49.67;34.22;;;15.00;99.90;;;;;;5063361;28;20079;-68
2023/05/09 06:55:45;;;;;;;52.58;33.50;;;15.00;99.90;;;;;;5057310;28;20032;-69
2023/05/09 06:58:11;;;;;;;54.45;35.05;;;15.00;99.90;;;;;;5065109;28;20116;-68
2023/05/09 07:00:38;;;;;;;56.22;35.00;;;15.00;99.90;;;;;;5046348;28;20493;-67
2023/05/09 07:03:06;;;;;;;53.38;34.70;;;15.00;99.90;;;;;;5059246;28;20051;-71
2023/05/09 07:05:32;;;;;;;59.00;36.58;;;15.00;99.90;;;;;;5067167;28;20047;-72
2023/05/09 07:07:58;;;;;;;60.78;37.80;;;15.00;99.90;;;;;;5047455;28;20052;-72
2023/05/09 07:10:24;;;;;;;59.63;37.60;;;15.00;99.90;;;;;;5079836;28;20316;-69
2023/05/09 07:12:50;;;;;;;57.85;36.60;;;15.00;99.90;;;;;;5064970;28;20044;-68
2023/05/09 07:15:16;;;;;;;66.95;37.83;;;15.00;99.90;;;;;;5062853;28;20048;-73
2023/05/09 07:17:41;;;;;;;65.82;40.40;;;15.00;99.90;;;;;;5063549;28;20847;-68
2023/05/09 07:20:07;;;;;;;69.03;40.97;;;15.10;99.90;;;;;;5058012;28;20040;-68
2023/05/09 07:22:33;;;;;;;73.47;42.70;;;15.10;99.90;;;;;;5056526;28;20507;-70
2023/05/09 07:24:59;;;;;;;76.88;43.58;;;15.10;99.90;;;;;;5063204;28;20101;-67
2023/05/09 07:27:25;;;;;;;76.43;42.33;;;15.10;99.90;;;;;;5046752;28;20040;-66
2023/05/09 07:29:51;;;;;;;77.40;43.83;;;15.10;99.90;;;;;;5065880;28;20083;-67
2023/05/09 07:32:18;;;;;;;83.07;44.72;;;15.10;99.90;;;;;;5062577;28;20495;-66
2023/05/09 07:34:44;;;;;;;83.00;45.05;;;15.10;99.90;;;;;;5056006;28;20123;-70
2023/05/09 07:37:10;;;;;;;84.57;44.40;;;15.20;99.90;;;;;;5047084;28;20123;-66
2023/05/09 07:39:35;;;;;;;90.20;46.40;;;15.20;99.90;;;;;;5082658;28;20590;-67
2023/05/09 07:42:01;;;;;;;105.35;49.53;;;15.20;99.90;;;;;;5063571;28;20063;-71
2023/05/09 07:44:27;;;;;;;107.25;49.45;;;15.20;99.90;;;;;;5062164;28;20044;-67
2023/05/09 07:46:54;;;;;;;111.55;53.05;;;15.20;99.90;;;;;;5062719;28;20421;-67
2023/05/09 07:49:21;;;;;;;113.50;51.67;;;15.20;99.90;;;;;;5070570;28;20550;-67
2023/05/09 07:51:47;;;;;;;109.22;52.00;;;15.20;99.90;;;;;;5083217;28;20040;-67
2023/05/09 07:54:12;;;;;;;114.80;50.95;;;15.20;99.90;;;;;;5059991;28;20756;-68
2023/05/09 07:56:38;;;;;;;100.70;49.95;;;15.20;99.90;;;;;;5046487;28;20059;-67
2023/05/09 07:59:04;;;;;;;112.85;49.92;;;15.20;99.90;;;;;;5046322;28;20052;-66
2023/05/09 08:01:30;;;;;;;99.88;49.33;;;15.20;99.90;;;;;;5062924;28;20581;-67
2023/05/09 08:03:55;;;;;;;103.60;50.38;;;15.20;99.90;;;;;;5047566;28;20051;-66
2023/05/09 08:06:21;;;;;;;104.85;48.58;;;15.30;99.90;;;;;;5065764;28;20418;-67
2023/05/09 08:08:47;;;;;;;105.40;49.33;;;15.40;99.90;;;;;;5052110;28;20040;-70
2023/05/09 08:11:12;;;;;;;100.55;49.30;;;15.40;99.90;;;;;;5047958;28;20205;-67
2023/05/09 08:13:38;;;;;;;106.07;49.53;;;15.40;99.90;;;;;;5066696;28;20591;-70
2023/05/09 08:16:04;;;;;;;104.13;50.47;;;15.50;99.90;;;;;;5065482;28;20037;-67
2023/05/09 08:18:30;;;;;;;104.75;49.33;;;15.50;99.90;;;;;;5066442;28;20093;-65
2023/05/09 08:20:58;;;;;;;104.13;50.58;;;15.60;99.90;;;;;;5048959;28;20040;-67
2023/05/09 08:23:24;;;;;;;103.45;48.20;;;15.60;99.90;;;;;;5065588;28;20055;-65
2023/05/09 08:25:54;;;;;;;101.07;49.15;;;15.70;99.90;;;;;;5065465;28;20051;-65
2023/05/09 08:28:22;;;;;;;93.80;48.47;;;15.70;99.90;;;;;;5066202;28;20040;-65
2023/05/09 08:30:50;;;;;;;83.10;45.78;;;15.80;99.90;;;;;;5049082;28;20678;-66
2023/05/09 08:33:16;;;;;;;85.00;44.80;;;15.80;99.90;;;;;;5049106;28;20078;-64
2023/05/09 08:35:42;;;;;;;85.82;47.42;;;15.90;99.90;;;;;;5082078;28;20411;-65
2023/05/09 08:38:08;;;;;;;82.68;44.05;;;16.00;99.90;;;;;;5058006;28;20093;-64
2023/05/09 08:40:37;;;;;;;78.88;44.50;;;16.00;99.90;;;;;;5055322;28;20044;-65
2023/05/09 08:43:06;;;;;;;82.40;43.10;;;16.10;99.90;;;;;;5065800;28;20078;-65
2023/05/09 08:45:38;;;;;;;81.63;42.55;;;16.20;99.90;;;;;;5065108;28;20101;-64
2023/05/09 08:48:05;;;;;;;78.65;42.78;;;16.20;99.90;;;;;;5066356;28;20127;-66
2023/05/09 08:50:32;;;;;;;78.18;43.38;;;16.30;99.90;;;;;;5065614;28;20588;-65
2023/05/09 08:52:58;;;;;;;74.95;42.00;;;16.40;99.90;;;;;;5048577;28;20105;-64
2023/05/09 08:55:25;;;;;;;84.03;43.50;;;16.50;99.90;;;;;;5048822;28;20430;-65
2023/05/09 08:57:51;;;;;;;84.70;44.88;;;16.50;99.90;;;;;;5049499;28;20392;-63
2023/05/09 09:00:19;;;;;;;78.80;43.10;;;16.60;99.90;;;;;;5048385;28;20131;-64
2023/05/09 09:02:45;;;;;;;80.15;42.85;;;16.70;99.90;;;;;;5065006;28;20131;-64
2023/05/09 09:05:11;;;;;;;69.65;39.72;;;16.80;99.90;;;;;;5080188;28;20071;-65
2023/05/09 09:07:39;;;;;;;74.00;41.28;;;16.90;99.90;;;;;;5065126;28;20044;-65
2023/05/09 09:10:08;;;;;;;67.95;37.90;;;16.90;99.90;;;;;;5048070;28;20052;-62
2023/05/09 09:12:36;;;;;;;64.10;37.30;;;17.00;99.90;;;;;;5048420;28;20214;-63
2023/05/09 09:15:04;;;;;;;74.97;40.03;;;17.00;99.90;;;;;;5079388;28;20485;-64
2023/05/09 09:17:31;;;;;;;61.63;38.03;;;17.10;99.90;;;;;;5068829;28;20029;-63
2023/05/09 09:20:01;;;;;;;65.65;37.72;;;17.10;99.90;;;;;;5057566;28;20097;-64
2023/05/09 09:22:33;;;;;;;62.70;36.95;;;17.20;99.90;;;;;;5064666;28;20044;-64
2023/05/09 09:25:00;;;;;;;57.97;34.15;;;17.20;99.90;;;;;;5064816;28;20040;-64
2023/05/09 09:27:26;;;;;;;57.95;34.75;;;17.30;99.90;;;;;;5048517;28;20075;-64
2023/05/09 09:29:52;;;;;;;61.03;36.08;;;17.40;99.90;;;;;;5064367;28;20155;-63
2023/05/09 09:32:18;;;;;;;56.70;34.08;;;17.40;99.90;;;;;;5048773;28;20536;-65
2023/05/09 09:34:48;;;;;;;53.67;32.33;;;17.50;99.90;;;;;;5077634;28;20147;-65
2023/05/09 09:37:24;;;;;;;58.03;32.78;;;17.50;99.90;;;;;;5062890;28;20037;-65
2023/05/09 09:39:56;;;;;;;52.90;33.13;;;17.50;99.90;;;;;;5047668;28;20457;-66
2023/05/09 09:42:25;;;;;;;58.08;33.10;;;17.50;99.90;;;;;;5047650;28;20055;-64
2023/05/09 09:45:12;;;;;;;49.50;30.95;;;17.50;99.90;;;;;;5047639;28;20048;-64
2023/05/09 09:47:39;;;;;;;50.33;30.38;;;17.50;99.90;;;;;;5064663;28;20569;-64
2023/05/09 09:50:10;;;;;;;51.95;31.52;;;17.50;99.90;;;;;;5058206;28;20075;-64
2023/05/09 09:52:40;;;;;;;55.92;33.38;;;17.50;99.90;;;;;;5067298;28;20499;-64
2023/05/09 09:55:06;;;;;;;54.72;31.67;;;17.40;99.90;;;;;;5068305;28;20097;-64
2023/05/09 09:57:35;;;;;;;51.13;31.60;;;17.50;99.90;;;;;;5067984;28;20044;-64
2023/05/09 10:00:02;;;;;;;50.83;31.25;;;17.50;99.90;;;;;;5051918;28;20488;-66
2023/05/09 10:02:28;;;;;;;49.40;30.67;;;17.60;99.90;;;;;;5063305;28;20167;-66
2023/05/09 10:04:54;;;;;;;46.00;30.40;;;17.60;99.90;;;;;;5064303;28;20127;-65
2023/05/09 10:07:24;;;;;;;49.97;31.10;;;17.60;99.90;;;;;;5047332;28;20571;-65
2023/05/09 10:09:50;;;;;;;49.33;30.65;;;17.50;99.90;;;;;;5058941;28;20127;-65
2023/05/09 10:12:18;;;;;;;48.80;29.90;;;17.50;99.90;;;;;;5083057;28;20143;-64
2023/05/09 10:14:46;;;;;;;45.78;29.80;;;17.40;99.90;;;;;;5053814;28;20040;-62
2023/05/09 10:17:13;;;;;;;47.75;30.90;;;17.30;99.90;;;;;;5064366;28;20084;-63
2023/05/09 10:19:47;;;;;;;46.00;29.90;;;17.30;99.90;;;;;;5047311;28;20044;-63
2023/05/09 10:22:16;;;;;;;46.53;30.27;;;17.30;99.90;;;;;;5046333;28;20048;-64
2023/05/09 10:24:58;;;;;;;46.85;30.45;;;17.20;99.90;;;;;;5072438;28;20040;-63
2023/05/09 10:27:27;;;;;;;42.28;29.42;;;17.30;99.90;;;;;;5067298;28;20044;-66
2023/05/09 10:30:12;;;;;;;47.05;30.27;;;17.40;99.90;;;;;;5082279;28;20590;-64
2023/05/09 10:32:45;;;;;;;41.50;28.52;;;17.40;99.90;;;;;;5066721;28;20477;-65
2023/05/09 10:35:12;;;;;;;47.25;31.08;;;17.40;99.90;;;;;;5064686;28;20499;-64
2023/05/09 10:37:39;;;;;;;44.60;29.63;;;17.50;99.90;;;;;;5055377;28;20067;-65
2023/05/09 10:40:05;;;;;;;43.70;29.77;;;17.70;99.90;;;;;;5065969;28;20161;-65
2023/05/09 10:42:32;;;;;;;43.60;28.25;;;17.90;99.90;;;;;;5066988;28;20043;-64
2023/05/09 10:44:58;;;;;;;39.95;27.27;;;18.20;99.90;;;;;;5069350;28;20067;-66
2023/05/09 10:47:28;;;;;;;37.80;25.20;;;18.40;99.90;;;;;;5063739;28;20040;-66
2023/05/09 10:49:54;;;;;;;41.88;25.50;;;18.40;99.90;;;;;;5063445;28;20048;-63
2023/05/09 10:52:21;;;;;;;38.95;25.17;;;18.40;99.90;;;;;;5063153;28;20514;-65
2023/05/09 10:54:59;;;;;;;36.42;26.05;;;18.40;99.90;;;;;;5046475;28;20033;-63
2023/05/09 10:57:27;;;;;;;35.88;25.20;;;18.40;99.90;;;;;;5066712;28;20043;-64
2023/05/09 10:59:57;;;;;;;39.10;25.75;;;18.40;99.90;;;;;;5069517;28;20534;-64
2023/05/09 11:02:31;;;;;;;34.63;23.67;;;18.50;99.90;;;;;;5046678;28;20059;-65
2023/05/09 11:05:37;;;;;;;35.22;24.17;;;18.50;99.90;;;;;;5047339;28;20071;-63
2023/05/09 11:08:29;;;;;;;33.50;23.60;;;18.60;99.90;;;;;;5016967;28;20052;-64
2023/05/09 11:10:59;;;;;;;31.95;22.38;;;18.70;99.90;;;;;;5082714;28;20060;-65
2023/05/09 11:13:30;;;;;;;33.97;23.30;;;18.80;99.90;;;;;;5064714;28;20042;-65
2023/05/09 11:15:59;;;;;;;30.30;20.48;;;18.90;99.90;;;;;;5063187;28;20044;-64
2023/05/09 11:18:25;;;;;;;33.72;22.48;;;19.00;99.90;;;;;;5063375;28;20123;-65
2023/05/09 11:20:50;;;;;;;29.95;20.52;;;19.10;99.90;;;;;;5046591;28;20140;-67
2023/05/09 11:23:22;;;;;;;26.83;19.15;;;19.10;99.90;;;;;;5062394;28;20049;-67
2023/05/09 11:25:51;;;;;;;31.73;18.90;;;19.10;99.90;;;;;;5064920;28;20731;-64
2023/05/09 11:28:30;;;;;;;27.90;20.08;;;19.00;99.90;;;;;;5046925;28;20067;-65
2023/05/09 11:31:12;;;;;;;46.00;30.75;;;19.00;99.90;;;;;;5045919;28;20040;-63
2023/05/09 11:33:40;;;;;;;49.55;33.10;;;18.90;99.90;;;;;;5053437;28;20071;-65
2023/05/09 11:36:34;;;;;;;54.10;35.10;;;18.70;99.90;;;;;;5045789;28;20043;-63
2023/05/09 11:39:03;;;;;;;54.72;34.60;;;18.70;99.90;;;;;;5066039;28;20705;-63
2023/05/09 11:41:30;;;;;;;59.13;36.55;;;18.60;99.90;;;;;;5047833;28;20067;-65
2023/05/09 11:43:58;;;;;;;57.90;36.50;;;18.70;99.90;;;;;;5062014;28;20048;-63
2023/05/09 11:46:25;;;;;;;54.30;36.20;;;18.70;99.90;;;;;;5065184;28;20040;-64
2023/05/09 11:48:52;;;;;;;45.28;29.90;;;18.80;99.90;;;;;;5067562;28;20114;-64
2023/05/09 11:51:18;;;;;;;57.63;36.38;;;18.80;99.90;;;;;;5086802;28;20040;-64
2023/05/09 11:53:52;;;;;;;50.15;33.25;;;18.80;99.90;;;;;;5069900;28;20036;-62
2023/05/09 11:56:19;;;;;;;50.13;34.38;;;18.80;99.90;;;;;;5061227;28;20619;-64
2023/05/09 11:58:45;;;;;;;55.28;34.55;;;18.70;99.90;;;;;;5050475;28;20047;-64
2023/05/09 12:01:11;;;;;;;52.72;35.13;;;18.60;99.90;;;;;;5049163;28;20094;-66
2023/05/09 12:03:44;;;;;;;49.38;33.15;;;18.60;99.90;;;;;;5083173;28;20040;-63
2023/05/09 12:06:15;;;;;;;54.10;35.20;;;18.50;99.90;;;;;;5069452;28;20036;-65
2023/05/09 12:08:41;;;;;;;58.00;37.75;;;18.40;99.90;;;;;;5082461;28;20094;-66
2023/05/09 12:11:07;;;;;;;62.60;37.67;;;18.30;99.90;;;;;;5049621;28;20045;-66
2023/05/09 12:13:34;;;;;;;62.47;36.90;;;18.20;99.90;;;;;;5049736;28;20048;-64
2023/05/09 12:16:03;;;;;;;65.50;38.20;;;18.20;99.90;;;;;;5049456;28;20637;-63
2023/05/09 12:18:28;;;;;;;62.38;39.40;;;18.20;99.90;;;;;;5066598;28;20043;-65
2023/05/09 12:20:54;;;;;;;61.50;39.40;;;18.20;99.90;;;;;;5050274;28;20056;-66
2023/05/09 12:23:20;;;;;;;68.38;39.08;;;18.20;99.90;;;;;;5082712;28;20047;-65
2023/05/09 12:25:47;;;;;;;67.78;38.72;;;18.20;99.90;;;;;;5069347;28;20044;-64